Time;durP1;ratioP1;P1;durP2;ratioP2;P2;SDS_P1;SDS_P2;PMS_P1;PMS_P2;Temp;Humidity;BMP_temperature;BMP_pressure;BME280_temperature;BME280_humidity;BME280_pressure;Samples;Min_cycle;Max_cycle;Signal;HPM_P1;HPM_P2
2023/05/02 00:00:42;;;;;;;7.03;4.57;;;;;;;19.63;100.00;96338.38;5102881;28;20087;-58
2023/05/02 00:03:11;;;;;;;5.75;4.15;;;;;;;19.66;100.00;96343.31;5103337;27;20089;-59
2023/05/02 00:05:41;;;;;;;6.05;4.28;;;;;;;20.34;100.00;96339.59;5102515;27;20716;-57
2023/05/02 00:08:09;;;;;;;5.87;4.63;;;;;;;20.18;100.00;96340.84;5103110;27;20082;-55
2023/05/02 00:10:37;;;;;;;5.45;4.65;;;;;;;19.98;100.00;96343.53;5102945;27;20095;-58
2023/05/02 00:13:06;;;;;;;7.03;4.63;;;;;;;19.80;100.00;96337.97;5101859;27;20098;-58
2023/05/02 00:15:34;;;;;;;6.63;5.15;;;;;;;19.38;100.00;96339.97;5101241;28;20535;-61
2023/05/02 00:18:02;;;;;;;7.13;5.13;;;;;;;19.51;100.00;96339.16;5101542;27;20569;-60
2023/05/02 00:20:31;;;;;;;6.25;4.88;;;;;;;19.76;100.00;96334.91;5101676;28;20086;-59
2023/05/02 00:23:00;;;;;;;5.97;4.60;;;;;;;19.82;100.00;96333.22;5102510;28;20664;-60
2023/05/02 00:25:29;;;;;;;6.38;4.97;;;;;;;19.45;100.00;96333.59;5102399;28;20086;-60
2023/05/02 00:27:57;;;;;;;5.30;4.13;;;;;;;19.14;100.00;96339.50;5100402;27;20159;-62
2023/05/02 00:30:26;;;;;;;6.78;4.75;;;;;;;19.43;100.00;96334.81;5095618;28;20075;-59
2023/05/02 00:32:54;;;;;;;8.38;4.63;;;;;;;19.47;100.00;96337.91;5098951;28;20060;-57
2023/05/02 00:35:23;;;;;;;6.30;4.68;;;;;;;19.83;100.00;96332.22;5101183;28;20086;-59
2023/05/02 00:37:51;;;;;;;8.45;4.70;;;;;;;19.54;100.00;96331.53;5097178;28;20435;-59
2023/05/02 00:40:21;;;;;;;5.50;4.65;;;;;;;19.07;100.00;96340.50;5105682;28;20061;-60
2023/05/02 00:42:49;;;;;;;5.47;4.45;;;;;;;19.29;100.00;96338.50;5102860;28;20081;-61
2023/05/02 00:45:18;;;;;;;5.40;4.53;;;;;;;19.21;100.00;96337.66;5100575;28;20080;-60
2023/05/02 00:47:46;;;;;;;5.88;4.80;;;;;;;19.38;100.00;96340.78;5098056;28;20119;-59
2023/05/02 00:50:15;;;;;;;5.75;4.82;;;;;;;19.20;100.00;96338.69;5098291;28;20071;-59
2023/05/02 00:52:43;;;;;;;8.77;4.80;;;;;;;19.38;100.00;96335.44;5101837;28;20071;-58
2023/05/02 00:55:11;;;;;;;4.85;4.18;;;;;;;18.78;100.00;96334.41;5099499;28;20136;-58
2023/05/02 00:57:41;;;;;;;6.15;4.80;;;;;;;19.13;100.00;96331.66;5098888;28;20519;-61
2023/05/02 01:00:11;;;;;;;5.93;4.30;;;;;;;19.04;100.00;96336.38;5101286;28;20083;-59
2023/05/02 01:02:46;;;;;;;7.45;4.93;;;;;;;19.09;100.00;96333.91;5100687;28;20094;-60
2023/05/02 01:05:18;;;;;;;5.57;4.30;;;;;;;19.18;100.00;96342.59;5101205;28;20083;-61
2023/05/02 01:07:55;;;;;;;6.13;4.53;;;;;;;18.79;100.00;96344.09;5102536;28;20535;-58
2023/05/02 01:10:32;;;;;;;6.85;4.50;;;;;;;19.21;100.00;96343.00;5098603;28;20089;-57
2023/05/02 01:13:05;;;;;;;6.30;4.75;;;;;;;18.50;100.00;96340.63;5100203;28;20083;-61
2023/05/02 01:15:35;;;;;;;6.38;4.88;;;;;;;18.63;100.00;96339.06;5101719;28;20087;-62
2023/05/02 01:18:05;;;;;;;6.10;5.10;;;;;;;18.74;100.00;96338.50;5100722;28;20079;-61
2023/05/02 01:20:37;;;;;;;6.43;4.68;;;;;;;19.23;100.00;96339.28;5097165;28;20106;-60
2023/05/02 01:23:11;;;;;;;6.13;5.15;;;;;;;19.07;100.00;96338.66;5101215;28;20149;-57
2023/05/02 01:25:48;;;;;;;8.05;4.88;;;;;;;18.83;100.00;96337.31;5101277;28;20071;-59
2023/05/02 01:28:28;;;;;;;6.13;4.75;;;;;;;19.04;100.00;96343.56;5099356;27;20086;-60
2023/05/02 01:30:58;;;;;;;5.85;4.70;;;;;;;18.86;100.00;96350.28;5105421;27;20067;-55
2023/05/02 01:33:28;;;;;;;6.10;4.75;;;;;;;19.18;100.00;96351.41;5104512;27;20487;-58
2023/05/02 01:35:57;;;;;;;5.68;4.28;;;;;;;18.83;100.00;96349.88;5102343;27;20078;-59
2023/05/02 01:38:27;;;;;;;6.78;5.07;;;;;;;18.68;100.00;96356.13;5105250;27;20082;-57
2023/05/02 01:40:57;;;;;;;7.37;5.63;;;;;;;19.03;100.00;96349.91;5104327;27;20083;-62
2023/05/02 01:43:26;;;;;;;6.80;4.93;;;;;;;18.83;100.00;96347.19;5102094;27;20512;-58
2023/05/02 01:45:55;;;;;;;5.80;4.63;;;;;;;19.25;100.00;96351.44;5108040;27;20067;-56
2023/05/02 01:48:27;;;;;;;7.13;5.13;;;;;;;19.12;100.00;96359.41;5107902;27;20094;-59
2023/05/02 01:50:57;;;;;;;6.00;4.78;;;;;;;18.99;100.00;96349.50;5104670;27;20087;-60
2023/05/02 01:53:26;;;;;;;;;;;;;;;19.29;100.00;96357.22;5109134;27;20511;-59
2023/05/02 01:55:54;;;;;;;7.38;4.60;;;;;;;19.25;100.00;96351.44;5106638;28;22025;-59
2023/05/02 01:58:24;;;;;;;5.57;4.40;;;;;;;19.28;100.00;96359.06;5103886;28;20091;-58
2023/05/02 02:00:53;;;;;;;6.03;4.88;;;;;;;19.45;100.00;96364.88;5101194;28;20091;-59
2023/05/02 02:03:21;;;;;;;6.18;4.93;;;;;;;19.24;100.00;96365.03;5103201;28;20083;-59
2023/05/02 02:05:52;;;;;;;6.60;5.10;;;;;;;19.18;100.00;96369.31;5103481;27;20076;-58
2023/05/02 02:08:20;;;;;;;;;;;;;;;18.77;100.00;96366.69;5105034;28;20083;-59
2023/05/02 02:10:53;;;;;;;6.18;4.72;;;;;;;18.93;100.00;96366.34;5101127;27;20010;-59
2023/05/02 02:13:27;;;;;;;7.95;4.97;;;;;;;19.10;100.00;96373.00;5107080;27;20075;-60
2023/05/02 02:15:59;;;;;;;6.45;4.82;;;;;;;18.45;100.00;96368.94;5103585;27;20079;-58
2023/05/02 02:18:28;;;;;;;6.72;5.45;;;;;;;19.09;100.00;96367.84;5104730;27;20066;-58
2023/05/02 02:20:59;;;;;;;7.18;5.30;;;;;;;18.19;100.00;96375.75;5101624;27;20075;-56
2023/05/02 02:23:29;;;;;;;8.65;5.43;;;;;;;18.17;100.00;96375.13;5103271;28;20091;-58
2023/05/02 02:25:57;;;;;;;7.07;5.40;;;;;;;18.46;100.00;96374.09;5102546;27;20090;-59
2023/05/02 02:28:26;;;;;;;7.97;5.60;;;;;;;18.25;100.00;96377.66;5104903;27;20464;-58
2023/05/02 02:30:54;;;;;;;8.13;5.30;;;;;;;18.52;100.00;96369.00;5102981;27;20086;-58
2023/05/02 02:33:25;;;;;;;7.57;5.68;;;;;;;18.49;100.00;96379.03;5101181;27;20082;-58
2023/05/02 02:35:53;;;;;;;;;;;;;;;18.18;100.00;96381.28;5100005;27;20131;-59
2023/05/02 02:38:30;;;;;;;7.05;5.60;;;;;;;18.40;100.00;96387.38;5100942;27;19970;-60
2023/05/02 02:41:03;;;;;;;8.40;5.80;;;;;;;18.17;100.00;96391.16;5102342;27;20088;-57
2023/05/02 02:43:34;;;;;;;6.68;5.53;;;;;;;18.50;100.00;96396.69;5103539;27;20479;-59
2023/05/02 02:46:09;;;;;;;7.78;5.60;;;;;;;18.66;100.00;96395.56;5106760;27;20083;-59
2023/05/02 02:48:42;;;;;;;7.15;5.90;;;;;;;18.79;100.00;96405.53;5100464;27;20087;-60
2023/05/02 02:51:14;;;;;;;8.32;6.20;;;;;;;18.79;100.00;96405.53;5100019;27;20087;-58
2023/05/02 02:53:52;;;;;;;7.05;5.65;;;;;;;18.78;100.00;96398.53;5098327;27;20083;-56
2023/05/02 02:56:27;;;;;;;6.90;5.75;;;;;;;18.79;100.00;96396.69;5098637;28;20094;-58
2023/05/02 02:58:58;;;;;;;7.97;5.97;;;;;;;18.96;100.00;96396.19;5100913;28;20103;-60
2023/05/02 03:01:28;;;;;;;7.05;5.75;;;;;;;19.21;100.00;96406.34;5100989;27;20086;-57
2023/05/02 03:03:57;;;;;;;8.07;6.18;;;;;;;18.63;100.00;96401.31;5102572;28;20083;-57
2023/05/02 03:06:26;;;;;;;9.18;5.82;;;;;;;18.78;100.00;96403.06;5099711;28;20072;-59
2023/05/02 03:08:56;;;;;;;9.77;5.72;;;;;;;19.03;100.00;96400.69;5098568;27;20554;-60
2023/05/02 03:11:24;;;;;;;8.20;5.63;;;;;;;18.58;100.00;96408.25;5101284;27;20132;-57
2023/05/02 03:13:54;;;;;;;8.07;5.72;;;;;;;18.42;100.00;96412.88;5101729;27;20463;-59
2023/05/02 03:16:35;;;;;;;8.45;5.63;;;;;;;18.74;100.00;96405.28;5103229;27;20079;-57
2023/05/02 03:19:04;;;;;;;7.18;5.47;;;;;;;18.76;100.00;96410.47;5109565;27;20078;-57
2023/05/02 03:21:33;;;;;;;8.00;5.95;;;;;;;19.02;100.00;96415.09;5102652;28;20102;-58
2023/05/02 03:24:04;;;;;;;7.47;5.97;;;;;;;19.02;100.00;96417.78;5104532;27;20090;-59
2023/05/02 03:26:33;;;;;;;8.38;6.10;;;;;;;18.86;100.00;96418.94;5097607;27;20086;-54
2023/05/02 03:29:01;;;;;;;8.50;5.95;;;;;;;19.11;100.00;96422.75;5100754;27;20083;-61
2023/05/02 03:31:29;;;;;;;8.48;6.32;;;;;;;19.03;100.00;96409.56;5098193;27;20090;-60
2023/05/02 03:33:57;;;;;;;7.68;6.15;;;;;;;19.45;100.00;96419.19;5104104;27;20082;-61
2023/05/02 03:36:26;;;;;;;8.00;6.15;;;;;;;18.75;100.00;96420.28;5100696;28;20140;-59
2023/05/02 03:38:54;;;;;;;7.93;6.28;;;;;;;19.54;100.00;96410.97;5099815;27;20086;-60
2023/05/02 03:41:24;;;;;;;7.78;6.18;;;;;;;19.39;100.00;96414.63;5102302;27;20090;-59
2023/05/02 03:43:52;;;;;;;7.50;5.78;;;;;;;19.35;100.00;96417.91;5095745;28;20083;-57
2023/05/02 03:46:21;;;;;;;8.10;5.93;;;;;;;19.15;100.00;96424.00;5096314;28;20090;-61
2023/05/02 03:48:49;;;;;;;8.45;6.72;;;;;;;19.11;100.00;96427.28;5100166;27;20083;-56
2023/05/02 03:51:18;;;;;;;7.82;5.88;;;;;;;19.20;100.00;96426.06;5096760;28;21788;-58
2023/05/02 03:53:46;;;;;;;8.13;6.20;;;;;;;19.12;100.00;96432.41;5100497;28;20079;-57
2023/05/02 03:56:18;;;;;;;8.55;6.60;;;;;;;18.69;100.00;96429.09;5098870;28;20083;-59
2023/05/02 03:58:49;;;;;;;9.00;6.85;;;;;;;18.47;100.00;96441.66;5098332;28;20052;-60
2023/05/02 04:01:17;;;;;;;8.40;6.45;;;;;;;18.60;100.00;96446.28;5103834;27;20079;-60
2023/05/02 04:03:46;;;;;;;8.13;6.63;;;;;;;18.09;100.00;96441.16;5105766;28;20082;-58
2023/05/02 04:06:14;;;;;;;8.63;6.68;;;;;;;18.61;100.00;96445.25;5097227;28;20083;-56
2023/05/02 04:08:42;;;;;;;9.00;7.10;;;;;;;18.94;100.00;96448.16;5101073;28;20487;-60
2023/05/02 04:11:11;;;;;;;8.75;6.63;;;;;;;19.20;100.00;96453.66;5102916;27;20090;-58
2023/05/02 04:13:39;;;;;;;8.98;7.00;;;;;;;19.54;100.00;96459.94;5101502;28;20087;-60
2023/05/02 04:16:09;;;;;;;9.63;6.22;;;;;;;19.04;100.00;96458.50;5097192;28;20787;-59
2023/05/02 04:18:37;;;;;;;8.90;6.57;;;;;;;18.94;100.00;96466.88;5096699;28;20463;-58
2023/05/02 04:21:08;;;;;;;8.80;6.97;;;;;;;19.48;100.00;96460.75;5093422;28;20075;-59
2023/05/02 04:23:37;;;;;;;8.57;6.70;;;;;;;19.52;100.00;96464.69;5100008;27;20161;-57
2023/05/02 04:26:05;;;;;;;8.88;6.82;;;;;;;19.64;99.81;96462.25;5101550;28;20075;-57
2023/05/02 04:28:35;;;;;;;8.55;6.47;;;;;;;18.99;100.00;96477.78;5098610;28;20086;-55
2023/05/02 04:31:03;;;;;;;9.27;7.15;;;;;;;19.77;98.06;96472.19;5100426;28;20083;-57
2023/05/02 04:33:33;;;;;;;9.13;6.82;;;;;;;20.77;85.45;96471.22;5098424;28;20086;-60
2023/05/02 04:36:01;;;;;;;8.57;6.07;;;;;;;20.84;83.80;96477.41;5097995;28;20083;-56
2023/05/02 04:38:30;;;;;;;8.38;6.55;;;;;;;20.83;82.38;96478.44;5099111;28;20684;-57
2023/05/02 04:40:58;;;;;;;8.88;6.22;;;;;;;20.56;85.00;96488.38;5099390;28;20079;-58
2023/05/02 04:43:36;;;;;;;9.48;6.80;;;;;;;20.94;82.06;96482.34;5096183;28;20090;-58
2023/05/02 04:46:04;;;;;;;8.23;6.00;;;;;;;21.00;80.76;96489.56;5103329;28;20079;-59
2023/05/02 04:48:34;;;;;;;7.97;6.18;;;;;;;21.32;77.83;96482.44;5100440;28;20087;-58
2023/05/02 04:51:02;;;;;;;7.32;5.85;;;;;;;21.54;74.79;96483.03;5101755;28;20087;-57
2023/05/02 04:53:30;;;;;;;7.30;5.85;;;;;;;21.38;75.56;96488.88;5099474;28;20075;-60
2023/05/02 04:55:59;;;;;;;8.10;6.25;;;;;;;21.67;72.56;96494.72;5100115;28;20075;-60
2023/05/02 04:58:27;;;;;;;7.10;5.80;;;;;;;21.56;72.63;96493.53;5101417;28;20083;-60
2023/05/02 05:00:55;;;;;;;6.75;5.53;;;;;;;21.71;71.63;96496.78;5101424;28;20079;-60
2023/05/02 05:03:24;;;;;;;8.00;6.30;;;;;;;21.85;71.04;96502.91;5106048;27;20083;-58
2023/05/02 05:05:54;;;;;;;7.05;5.70;;;;;;;21.91;70.21;96499.34;5105599;27;20090;-62
2023/05/02 05:08:22;;;;;;;7.23;5.73;;;;;;;21.85;72.00;96500.22;5104743;27;20098;-60
2023/05/02 05:10:51;;;;;;;7.22;5.70;;;;;;;21.78;70.04;96507.47;5103836;27;20106;-58
2023/05/02 05:13:19;;;;;;;7.00;5.40;;;;;;;21.73;72.63;96512.66;5105407;28;20531;-61
2023/05/02 05:15:48;;;;;;;6.47;5.50;;;;;;;20.78;82.08;96523.78;5106096;27;20079;-62
2023/05/02 05:18:16;;;;;;;7.03;5.80;;;;;;;21.94;72.41;96511.53;5098546;27;20130;-56
2023/05/02 05:20:45;;;;;;;6.90;5.63;;;;;;;21.39;76.19;96522.69;5103185;27;20484;-60
2023/05/02 05:23:14;;;;;;;8.00;5.90;;;;;;;20.69;81.92;96521.56;5107241;27;20083;-58
2023/05/02 05:25:43;;;;;;;6.60;5.00;;;;;;;21.46;80.05;96525.38;5107025;28;20087;-60
2023/05/02 05:28:13;;;;;;;5.50;4.80;;;;;;;21.25;82.92;96521.88;5104403;27;21076;-61
2023/05/02 05:30:41;;;;;;;5.53;4.88;;;;;;;21.10;83.12;96527.50;5106640;27;20083;-58
2023/05/02 05:33:09;;;;;;;5.80;5.03;;;;;;;20.81;84.12;96533.28;5102271;27;20086;-58
2023/05/02 05:35:37;;;;;;;8.02;5.22;;;;;;;20.29;92.28;96527.66;5101864;27;20083;-57
2023/05/02 05:38:06;;;;;;;5.88;4.95;;;;;;;20.85;89.70;96521.97;5102727;27;20135;-60
2023/05/02 05:40:36;;;;;;;5.88;4.43;;;;;;;21.71;80.09;96522.78;5105080;27;20087;-57
2023/05/02 05:43:05;;;;;;;5.72;4.80;;;;;;;21.63;81.03;96531.09;5103692;27;20206;-60
2023/05/02 05:45:33;;;;;;;7.50;5.25;;;;;;;20.96;87.05;96538.44;5104466;27;20082;-59
2023/05/02 05:48:01;;;;;;;5.40;4.30;;;;;;;20.98;90.15;96542.56;5104622;27;20079;-59
2023/05/02 05:50:29;;;;;;;6.35;5.10;;;;;;;21.67;84.10;96538.50;5105626;27;20420;-53
2023/05/02 05:52:58;;;;;;;5.75;4.95;;;;;;;21.17;85.64;96551.63;5103387;27;20079;-58
2023/05/02 05:55:27;;;;;;;6.10;5.03;;;;;;;21.27;85.87;96546.66;5101650;27;20087;-53
2023/05/02 05:57:57;;;;;;;5.63;4.50;;;;;;;21.71;83.73;96561.22;5103395;27;20146;-57
2023/05/02 06:00:26;;;;;;;6.82;4.93;;;;;;;21.74;78.44;96550.03;5107803;27;20082;-56
2023/05/02 06:02:54;;;;;;;5.90;5.10;;;;;;;21.60;80.32;96558.34;5099362;27;20075;-59
2023/05/02 06:05:22;;;;;;;5.63;4.78;;;;;;;22.10;76.87;96553.19;5106142;27;20083;-58
2023/05/02 06:07:51;;;;;;;6.50;5.00;;;;;;;22.54;73.87;96549.63;5104540;27;20071;-58
2023/05/02 06:10:19;;;;;;;5.75;5.05;;;;;;;21.65;79.55;96566.59;5104243;27;20086;-56
2023/05/02 06:12:47;;;;;;;6.30;4.80;;;;;;;22.56;74.97;96560.16;5105149;27;20082;-59
2023/05/02 06:15:18;;;;;;;5.80;5.00;;;;;;;23.05;68.80;96569.28;5107479;27;20068;-56
2023/05/02 06:17:46;;;;;;;7.80;5.72;;;;;;;23.16;68.73;96563.22;5106490;27;20075;-57
2023/05/02 06:20:14;;;;;;;6.40;5.28;;;;;;;22.73;73.38;96572.84;5107150;28;20470;-61
2023/05/02 06:22:45;;;;;;;6.47;5.18;;;;;;;22.10;78.10;96572.81;5105627;27;20079;-55
2023/05/02 06:25:13;;;;;;;6.90;5.25;;;;;;;22.11;79.58;96574.44;5107761;28;20150;-57
2023/05/02 06:27:42;;;;;;;6.40;5.40;;;;;;;21.83;80.80;96584.69;5104089;27;20554;-58
2023/05/02 06:30:10;;;;;;;8.13;5.32;;;;;;;21.75;81.80;96593.81;5106474;28;20079;-55
2023/05/02 06:32:42;;;;;;;6.65;5.07;;;;;;;21.94;81.13;96592.91;5109686;27;20513;-59
2023/05/02 06:35:11;;;;;;;5.82;5.00;;;;;;;21.52;84.78;96600.47;5102947;27;20554;-57
2023/05/02 06:37:39;;;;;;;6.95;4.90;;;;;;;21.45;95.96;96598.84;5106607;27;20075;-54
2023/05/02 06:40:09;;;;;;;6.40;4.35;;;;;;;21.51;92.25;96601.53;5103033;27;20075;-59
2023/05/02 06:42:37;;;;;;;5.93;5.10;;;;;;;21.67;92.50;96607.47;5091143;27;20083;-58
2023/05/02 06:45:06;;;;;;;6.53;4.97;;;;;;;21.14;99.02;96610.22;5109165;27;20083;-56
2023/05/02 06:47:34;;;;;;;7.47;5.55;;;;;;;22.05;92.53;96597.59;5105484;28;20180;-58
2023/05/02 06:50:05;;;;;;;6.45;5.32;;;;;;;21.16;92.89;96618.84;5108945;27;20091;-58
2023/05/02 06:52:33;;;;;;;6.72;5.30;;;;;;;21.67;94.67;96607.47;5105456;27;20082;-60
2023/05/02 06:55:01;;;;;;;5.78;4.97;;;;;;;22.37;85.22;96595.00;5106266;27;20075;-58
2023/05/02 06:57:30;;;;;;;6.43;5.43;;;;;;;23.14;79.28;96603.78;5106965;27;20079;-56
2023/05/02 06:59:58;;;;;;;6.93;5.88;;;;;;;23.60;72.70;96602.50;5105150;28;20558;-56
2023/05/02 07:02:27;;;;;;;6.20;5.10;;;;;;;21.83;83.23;96617.75;5104463;28;20538;-57
2023/05/02 07:04:55;;;;;;;8.43;5.47;;;;;;;22.87;83.91;96615.75;5101123;27;20077;-58
2023/05/02 07:07:25;;;;;;;7.38;5.30;;;;;;;23.65;70.12;96604.53;5101520;27;20102;-56
2023/05/02 07:09:53;;;;;;;6.50;5.27;;;;;;;24.36;63.80;96614.69;5099894;27;20075;-58
2023/05/02 07:12:21;;;;;;;6.53;5.38;;;;;;;24.43;64.63;96613.78;5098628;27;20100;-58
2023/05/02 07:14:49;;;;;;;8.30;6.22;;;;;;;24.22;69.00;96617.75;5103626;27;20087;-59
2023/05/02 07:17:18;;;;;;;7.70;5.07;;;;;;;23.03;75.69;96630.59;5099960;27;20087;-52
2023/05/02 07:19:46;;;;;;;7.65;5.50;;;;;;;22.75;78.53;96624.53;5103704;27;20102;-57
2023/05/02 07:22:15;;;;;;;8.63;5.60;;;;;;;22.48;86.74;96621.19;5102409;27;20111;-57
2023/05/02 07:24:45;;;;;;;6.80;5.60;;;;;;;22.89;76.60;96614.50;5101570;27;20094;-58
2023/05/02 07:27:13;;;;;;;6.10;4.97;;;;;;;21.93;88.04;96625.34;5101768;27;20074;-59
2023/05/02 07:29:42;;;;;;;6.30;5.03;;;;;;;22.90;82.38;96616.16;5101862;27;20086;-55
2023/05/02 07:32:10;;;;;;;7.70;5.85;;;;;;;22.79;78.33;96621.41;5103157;27;20083;-55
2023/05/02 07:34:38;;;;;;;7.22;5.78;;;;;;;22.76;78.99;96617.28;5102285;27;20079;-57
2023/05/02 07:37:07;;;;;;;7.05;5.88;;;;;;;22.39;87.64;96614.41;5099297;27;20292;-55
2023/05/02 07:39:35;;;;;;;6.03;5.30;;;;;;;22.65;81.12;96612.63;5101172;27;20080;-58
2023/05/02 07:42:05;;;;;;;6.38;5.15;;;;;;;21.61;87.62;96627.94;5100583;27;20091;-56
2023/05/02 07:44:34;;;;;;;6.82;5.70;;;;;;;22.71;81.17;96617.09;5101118;27;20079;-57
2023/05/02 07:47:03;;;;;;;6.85;5.57;;;;;;;23.18;76.96;96620.31;5102092;27;20083;-54
2023/05/02 07:49:31;;;;;;;6.78;5.60;;;;;;;23.86;69.76;96627.53;5101858;28;20089;-55
2023/05/02 07:51:59;;;;;;;7.80;5.90;;;;;;;23.14;76.78;96627.16;5100067;27;20083;-59
2023/05/02 07:54:28;;;;;;;7.15;5.65;;;;;;;22.97;76.75;96627.72;5102281;27;20113;-55
2023/05/02 07:57:00;;;;;;;7.13;5.35;;;;;;;23.01;78.13;96624.59;5102486;27;20474;-55
2023/05/02 07:59:31;;;;;;;6.28;5.40;;;;;;;23.60;73.48;96628.59;5102444;27;20497;-58
2023/05/02 08:01:59;;;;;;;7.75;6.18;;;;;;;23.00;72.76;96636.41;5100529;27;20087;-57
2023/05/02 08:04:28;;;;;;;7.50;6.05;;;;;;;23.15;77.27;96636.88;5098318;28;20083;-57
2023/05/02 08:06:56;;;;;;;8.18;6.25;;;;;;;23.31;81.91;96640.91;5101133;27;20561;-58
2023/05/02 08:09:24;;;;;;;10.45;5.80;;;;;;;23.03;79.54;96646.72;5103750;27;20087;-57
2023/05/02 08:11:53;;;;;;;7.72;6.30;;;;;;;23.28;72.19;96650.22;5099380;28;20083;-61
2023/05/02 08:14:21;;;;;;;7.63;5.80;;;;;;;23.00;81.32;96649.84;5106521;27;20083;-58
2023/05/02 08:16:50;;;;;;;7.40;6.15;;;;;;;24.06;70.52;96651.56;5097235;27;20522;-57
2023/05/02 08:19:19;;;;;;;8.57;6.80;;;;;;;23.08;74.75;96661.13;5105668;27;20082;-60
2023/05/02 08:21:47;;;;;;;7.65;6.15;;;;;;;24.09;68.80;96651.09;5103536;28;20082;-58
2023/05/02 08:24:15;;;;;;;7.93;6.55;;;;;;;23.90;68.14;96655.66;5101920;27;20084;-55
2023/05/02 08:26:44;;;;;;;9.90;5.93;;;;;;;24.21;68.55;96641.22;5103195;28;20079;-58
2023/05/02 08:29:12;;;;;;;7.80;7.00;;;;;;;24.19;65.75;96651.41;5100390;27;20094;-57
2023/05/02 08:31:41;;;;;;;7.13;5.97;;;;;;;24.65;66.51;96650.00;5102493;28;20086;-55
2023/05/02 08:34:10;;;;;;;9.05;6.88;;;;;;;23.96;70.54;96649.38;5102156;28;20133;-58
2023/05/02 08:36:39;;;;;;;8.30;6.60;;;;;;;23.87;68.76;96656.09;5097273;28;20090;-59
2023/05/02 08:39:08;;;;;;;6.78;5.95;;;;;;;24.96;61.85;96654.31;5104386;27;20079;-58
2023/05/02 08:41:37;;;;;;;8.95;6.75;;;;;;;24.87;61.92;96647.59;5100478;28;20074;-58
2023/05/02 08:44:06;;;;;;;6.97;6.10;;;;;;;24.76;65.59;96651.91;5100237;28;20118;-56
2023/05/02 08:46:36;;;;;;;8.52;6.75;;;;;;;24.58;64.00;96657.34;5102403;28;20075;-57
2023/05/02 08:49:05;;;;;;;7.25;6.40;;;;;;;24.92;67.09;96658.53;5101103;28;20086;-55
2023/05/02 08:51:36;;;;;;;7.00;6.30;;;;;;;24.37;64.94;96661.34;5106816;28;20098;-57
2023/05/02 08:54:08;;;;;;;7.35;6.35;;;;;;;24.92;58.82;96652.31;5101456;28;20075;-59
2023/05/02 08:56:37;;;;;;;7.00;6.30;;;;;;;25.73;56.64;96653.47;5103725;28;20180;-59
2023/05/02 08:59:07;;;;;;;7.70;6.47;;;;;;;25.07;66.95;96667.00;5101750;28;20079;-57
2023/05/02 09:01:36;;;;;;;8.35;6.60;;;;;;;24.46;62.18;96672.66;5098188;28;20527;-59
2023/05/02 09:04:04;;;;;;;7.85;6.38;;;;;;;25.62;57.98;96665.91;5100649;28;20622;-54
2023/05/02 09:06:34;;;;;;;9.93;7.22;;;;;;;26.45;55.31;96672.88;5100891;28;20087;-55
2023/05/02 09:09:03;;;;;;;8.07;6.65;;;;;;;25.84;55.84;96673.44;5100351;28;20489;-58
2023/05/02 09:11:32;;;;;;;9.07;7.03;;;;;;;25.77;59.53;96677.09;5100553;28;20090;-53
2023/05/02 09:14:02;;;;;;;8.25;6.55;;;;;;;26.62;53.17;96672.94;5101130;28;20074;-51
2023/05/02 09:16:38;;;;;;;7.22;6.53;;;;;;;27.06;50.79;96675.09;5096418;28;20082;-56
2023/05/02 09:19:07;;;;;;;8.57;6.47;;;;;;;26.02;53.61;96682.25;5101074;28;20086;-60
2023/05/02 09:21:36;;;;;;;8.18;6.65;;;;;;;26.83;51.79;96676.03;5101228;28;20079;-55
2023/05/02 09:24:17;;;;;;;10.32;7.10;;;;;;;27.30;49.05;96673.94;5096557;28;20597;-59
2023/05/02 09:26:57;;;;;;;8.88;6.75;;;;;;;26.02;54.58;96681.44;5099531;28;20298;-60
2023/05/02 09:29:27;;;;;;;8.20;7.22;;;;;;;26.02;55.07;96682.25;5099603;28;20084;-59
2023/05/02 09:31:55;;;;;;;7.78;6.80;;;;;;;25.69;56.83;96690.94;5097885;28;20064;-56
2023/05/02 09:34:24;;;;;;;8.27;6.82;;;;;;;25.61;59.12;96694.00;5100085;28;20096;-54
2023/05/02 09:36:53;;;;;;;7.32;6.50;;;;;;;24.50;61.78;96701.66;5100469;28;20585;-54
2023/05/02 09:39:24;;;;;;;8.38;7.43;;;;;;;24.97;65.52;96696.41;5100699;28;20709;-56
2023/05/02 09:41:53;;;;;;;9.40;8.02;;;;;;;25.90;60.74;96696.84;5099024;28;20075;-57
2023/05/02 09:44:24;;;;;;;8.07;6.63;;;;;;;24.23;64.15;96703.81;5102679;28;20097;-56
2023/05/02 09:46:53;;;;;;;;;;;;;;;25.10;64.33;96701.63;5100109;28;20091;-59
2023/05/02 09:49:39;;;;;;;8.50;6.63;;;;;;;24.06;64.72;96702.75;5103517;27;19974;-60
2023/05/02 09:52:11;;;;;;;9.23;6.68;;;;;;;24.04;65.50;96710.22;5105709;27;20098;-60
2023/05/02 09:54:41;;;;;;;8.10;6.85;;;;;;;24.23;67.04;96709.19;5097699;27;20094;-60
2023/05/02 09:57:10;;;;;;;8.80;7.65;;;;;;;24.65;67.58;96701.22;5102115;27;20166;-56
2023/05/02 09:59:39;;;;;;;10.18;7.90;;;;;;;24.82;67.73;96696.84;5103630;27;20102;-60
2023/05/02 10:02:10;;;;;;;9.60;8.23;;;;;;;25.39;64.99;96699.13;5102401;27;20290;-57
2023/05/02 10:04:39;;;;;;;10.30;6.43;;;;;;;25.16;57.87;96709.91;5105653;27;20886;-60
2023/05/02 10:07:09;;;;;;;10.10;7.45;;;;;;;25.14;61.07;96696.63;5103029;27;20079;-59
2023/05/02 10:09:41;;;;;;;10.80;7.80;;;;;;;25.41;58.74;96697.03;5099407;27;20539;-58
2023/05/02 10:12:14;;;;;;;7.68;6.38;;;;;;;25.93;53.63;96701.78;5100802;27;20075;-58
2023/05/02 10:14:48;;;;;;;8.63;7.20;;;;;;;26.17;54.71;96697.97;5104106;27;20083;-59
2023/05/02 10:17:23;;;;;;;9.60;6.60;;;;;;;26.59;53.36;96700.47;5102634;27;20172;-55
2023/05/02 10:20:01;;;;;;;9.57;7.07;;;;;;;24.44;56.87;96707.13;5100972;27;20086;-59
2023/05/02 10:22:29;;;;;;;8.35;6.57;;;;;;;25.79;55.94;96703.84;5098735;27;20075;-57
2023/05/02 10:24:59;;;;;;;7.60;6.55;;;;;;;25.86;55.63;96701.06;5104550;27;20067;-60
2023/05/02 10:27:29;;;;;;;;;;;;;;;25.16;57.40;96704.50;5102819;27;20133;-57
2023/05/02 10:29:58;;;;;;;7.80;6.60;;;;;;;25.65;56.26;96708.66;5104926;27;19963;-57
2023/05/02 10:32:28;;;;;;;8.25;6.90;;;;;;;25.25;59.51;96701.22;5102838;27;20090;-57
2023/05/02 10:34:57;;;;;;;9.68;7.95;;;;;;;24.99;66.06;96704.31;5102388;27;20079;-59
2023/05/02 10:37:26;;;;;;;10.63;8.10;;;;;;;24.92;66.22;96699.00;5099529;27;21410;-57
2023/05/02 10:39:55;;;;;;;7.05;5.78;;;;;;;24.15;69.04;96702.19;5104804;27;20095;-57
2023/05/02 10:42:25;;;;;;;8.57;7.55;;;;;;;24.11;70.40;96700.19;5103252;27;20083;-58
2023/05/02 10:44:53;;;;;;;9.68;8.20;;;;;;;24.77;70.67;96704.78;5102638;27;20087;-56
2023/05/02 10:47:22;;;;;;;9.57;8.50;;;;;;;24.85;66.03;96696.41;5107091;27;20124;-60
2023/05/02 10:49:52;;;;;;;9.48;5.63;;;;;;;24.31;72.12;96708.88;5100951;27;20083;-53
2023/05/02 10:52:26;;;;;;;9.65;7.38;;;;;;;24.94;65.53;96694.19;5104103;27;20075;-54
2023/05/02 10:55:13;;;;;;;8.25;5.97;;;;;;;24.31;66.33;96697.28;5103658;27;20087;-54
2023/05/02 10:58:19;;;;;;;9.35;8.15;;;;;;;24.90;66.05;96697.56;5103280;27;20609;-60
2023/05/02 11:00:49;;;;;;;9.77;7.15;;;;;;;24.79;62.62;96700.00;5101116;27;20522;-58
2023/05/02 11:03:51;;;;;;;9.40;7.28;;;;;;;25.62;60.49;96698.34;5099511;27;20488;-55
2023/05/02 11:06:19;;;;;;;9.15;7.40;;;;;;;25.40;57.83;96687.28;5101673;27;20777;-57
2023/05/02 11:08:47;;;;;;;11.40;8.13;;;;;;;26.21;56.76;96690.22;5102239;27;20083;-58
2023/05/02 11:11:41;;;;;;;8.68;7.03;;;;;;;25.77;53.26;96697.84;5103684;27;20122;-51
2023/05/02 11:14:10;;;;;;;9.70;7.75;;;;;;;25.88;52.45;96697.09;5100008;27;20087;-59
2023/05/02 11:17:09;;;;;;;9.60;7.38;;;;;;;26.14;48.67;96695.75;5100662;27;20546;-58
2023/05/02 11:20:26;;;;;;;8.30;6.32;;;;;;;25.09;50.38;96697.28;5099945;27;20075;-57
2023/05/02 11:22:59;;;;;;;9.98;8.68;;;;;;;26.70;50.87;96693.38;5099020;27;20114;-56
2023/05/02 11:25:38;;;;;;;8.25;7.07;;;;;;;26.48;45.98;96693.25;5101334;27;20134;-58
2023/05/02 11:28:09;;;;;;;9.05;7.28;;;;;;;26.11;46.18;96695.41;5100011;27;20083;-58
2023/05/02 11:30:39;;;;;;;9.90;8.43;;;;;;;27.33;48.02;96684.28;5098709;27;20080;-60
2023/05/02 11:33:15;;;;;;;8.10;7.30;;;;;;;27.09;44.91;96685.47;5100922;27;20087;-55
2023/05/02 11:35:46;;;;;;;8.20;6.32;;;;;;;26.76;47.60;96695.13;5103460;27;20082;-58
2023/05/02 11:38:19;;;;;;;9.32;6.68;;;;;;;26.33;45.88;96695.63;5102771;27;20102;-57
2023/05/02 11:40:56;;;;;;;12.60;8.10;;;;;;;27.33;43.69;96694.28;5102974;27;20082;-57
2023/05/02 11:43:26;;;;;;;10.85;8.00;;;;;;;27.79;43.32;96695.03;5099698;27;20166;-54
2023/05/02 11:45:59;;;;;;;9.60;7.25;;;;;;;27.15;42.85;96693.47;5100892;27;20082;-59